If you wish to contribute or participate in the discussions about articles you are invited to join SKYbrary as a registered user

 Actions

Juan Santamaría International Airport

From SKYbrary Wiki

MROC
Airport
ICAO: MROC – IATA: SJO
Summary
Name Juan Santamaría International Airport
Region South America and Caribbean
Territory Costa Rica CR.gif
Location Alajuela, Alajuela Province
Serving San José
Elevation 920.8 m
3,020.997 ft
3,020.997 ft920.8 m
Coordinates 9° 59' 37.00" N, 84° 12' 32.00" W
Runways
Designator Length Width Surface ROPS
7/25 3012 m9,881.89 ft
46 m150.919 ft
ASP yes/yes


METAR
Observation MROC 171800Z 25008KT 9999 FEW045 27/20 A3002 NOSIG
Station Juan Santamaria
Date/Time 17 October 2019 18:00:00
Wind direction 250°
Wind speed 08 kts
Lowest cloud amount few clouds
Temperature 27°C
Dew point 20°C
Humidity 65%
QNH hPa
Weather condition n/a

Juan Santamaría International Airport (IATA: SJO) is located in Alajuela Province, about 20 km from downtown San José, Costa Rica.

Climatology

Tropical savannah climate (Köppen climate classification Aw)

Maps

Terrain

Loading map...

Airport Layout

Loading map...


Accidents & Serious Incidents at or in vicinity of MROC

None on SKYbrary